createdAt,value
2022-11-01T00:01:44.361Z,75.60
2022-11-01T00:04:11.507Z,75.90
2022-11-01T00:06:38.601Z,75.50
2022-11-01T00:09:06.005Z,76.20
2022-11-01T00:11:32.649Z,76.60
2022-11-01T00:13:59.274Z,76.90
2022-11-01T00:16:26.381Z,77.00
2022-11-01T00:18:53.003Z,77.60
2022-11-01T00:21:19.826Z,77.70
2022-11-01T00:23:46.754Z,77.70
2022-11-01T00:26:19.382Z,76.70
2022-11-01T00:28:46.280Z,76.80
2022-11-01T00:31:14.053Z,76.70
2022-11-01T00:33:40.782Z,76.80
2022-11-01T00:36:08.705Z,76.50
2022-11-01T00:38:36.367Z,75.90
2022-11-01T00:41:04.068Z,77.40
2022-11-01T00:43:35.019Z,76.00
2022-11-01T00:46:02.961Z,76.50
2022-11-01T00:48:29.982Z,76.70
2022-11-01T00:50:56.652Z,76.50
2022-11-01T00:53:23.428Z,76.40
2022-11-01T00:55:50.105Z,76.60
2022-11-01T00:58:16.808Z,76.80
2022-11-01T01:00:43.467Z,76.60
2022-11-01T01:03:10.418Z,76.80
2022-11-01T01:05:39.601Z,76.90
2022-11-01T01:08:06.206Z,76.60
2022-11-01T01:10:32.838Z,77.00
2022-11-01T01:12:59.744Z,77.30
2022-11-01T01:15:26.725Z,77.20
2022-11-01T01:17:53.412Z,76.80
2022-11-01T01:20:20.905Z,76.60
2022-11-01T01:22:48.059Z,76.60
2022-11-01T01:25:15.615Z,76.80
2022-11-01T01:27:42.317Z,76.60
2022-11-01T01:30:09.713Z,76.50
2022-11-01T01:32:36.496Z,76.50
2022-11-01T01:35:03.279Z,76.30
2022-11-01T01:37:29.933Z,76.10
2022-11-01T01:39:56.902Z,76.20
2022-11-01T01:42:32.205Z,76.20
2022-11-01T01:44:58.801Z,76.10
2022-11-01T01:47:37.316Z,76.50
2022-11-01T01:50:17.730Z,76.20
2022-11-01T01:52:51.133Z,76.60
2022-11-01T01:55:22.291Z,76.00
2022-11-01T01:57:49.708Z,76.20
2022-11-01T02:00:17.006Z,76.50
2022-11-01T02:02:44.285Z,77.00
2022-11-01T02:05:22.167Z,76.80
2022-11-01T02:07:49.579Z,76.80
2022-11-01T02:10:17.002Z,76.90
2022-11-01T02:12:48.904Z,76.30
2022-11-01T02:15:17.159Z,77.20
2022-11-01T02:17:58.494Z,76.80
2022-11-01T02:20:39.975Z,77.20
2022-11-01T02:23:21.336Z,76.60
2022-11-01T02:26:09.974Z,76.50
2022-11-01T02:28:36.546Z,76.30
2022-11-01T02:31:21.420Z,76.70
2022-11-01T02:33:54.950Z,76.40
2022-11-01T02:36:37.864Z,76.40
2022-11-01T02:42:17.843Z,76.20
2022-11-01T02:44:54.890Z,76.10
2022-11-01T02:47:23.416Z,76.00
2022-11-01T02:49:53.861Z,76.20
2022-11-01T02:52:25.153Z,76.10
2022-11-01T02:55:00.801Z,75.90
2022-11-01T02:57:36.254Z,76.80
2022-11-01T03:00:21.995Z,76.70
2022-11-01T03:02:53.388Z,76.40
2022-11-01T03:05:23.878Z,76.60
2022-11-01T03:07:56.596Z,77.20
2022-11-01T03:10:44.623Z,77.20
2022-11-01T03:13:32.419Z,77.60
2022-11-01T03:16:12.518Z,77.00
2022-11-01T03:18:50.658Z,77.00
2022-11-01T03:21:23.023Z,77.10
2022-11-01T03:23:56.644Z,77.60
2022-11-01T03:26:29.815Z,77.30
2022-11-01T03:29:00.936Z,77.20
2022-11-01T03:31:33.760Z,77.40
2022-11-01T03:34:07.014Z,78.40
2022-11-01T03:36:40.036Z,78.70
2022-11-01T03:39:19.466Z,78.10
2022-11-01T03:41:50.536Z,77.70
2022-11-01T03:44:18.182Z,77.80
2022-11-01T03:46:44.951Z,77.50
2022-11-01T03:49:17.345Z,77.50
2022-11-01T03:51:44.021Z,77.30
2022-11-01T03:54:11.006Z,77.00
2022-11-01T03:56:41.649Z,77.20
2022-11-01T03:59:09.806Z,77.40
2022-11-01T04:01:37.148Z,77.40
2022-11-01T04:04:04.125Z,77.90
2022-11-01T04:06:30.811Z,77.30
2022-11-01T04:08:57.490Z,77.90
2022-11-01T04:11:24.153Z,77.90
2022-11-01T04:13:50.786Z,78.10
2022-11-01T04:16:36.042Z,77.90
2022-11-01T04:19:21.543Z,78.20
2022-11-01T04:21:48.308Z,78.90
2022-11-01T04:24:20.809Z,79.30
2022-11-01T04:26:47.840Z,79.00
2022-11-01T04:29:14.472Z,79.90
2022-11-01T04:31:41.244Z,79.90
2022-11-01T04:34:07.928Z,79.90
2022-11-01T04:36:34.625Z,79.00
2022-11-01T04:39:02.866Z,80.90
2022-11-01T04:41:29.582Z,81.90
2022-11-01T04:43:58.504Z,81.30
2022-11-01T04:46:25.611Z,80.40
2022-11-01T04:48:52.186Z,79.90
2022-11-01T04:51:18.817Z,80.20
2022-11-01T04:53:45.413Z,81.50
2022-11-01T04:56:13.708Z,82.60
2022-11-01T04:58:44.807Z,81.80
2022-11-01T05:01:14.080Z,81.20
2022-11-01T05:03:40.919Z,81.20
2022-11-01T05:06:07.657Z,81.70
2022-11-01T05:08:34.339Z,83.20
2022-11-01T05:13:52.442Z,83.60
2022-11-01T05:16:20.513Z,80.90
2022-11-01T05:18:48.081Z,82.30
2022-11-01T05:21:14.980Z,80.90
2022-11-01T05:23:41.607Z,80.70
2022-11-01T05:26:08.314Z,81.50
2022-11-01T05:28:34.972Z,82.40
2022-11-01T05:31:01.795Z,82.10
2022-11-01T05:33:28.481Z,82.20
2022-11-01T05:35:55.125Z,81.50
2022-11-01T05:38:21.747Z,81.70
2022-11-01T05:40:48.632Z,82.00
2022-11-01T05:43:15.374Z,81.70
2022-11-01T05:45:42.244Z,82.00
2022-11-01T05:48:09.265Z,81.60
2022-11-01T05:50:35.906Z,82.90
2022-11-01T05:53:10.377Z,83.50
2022-11-01T05:55:37.677Z,82.80
2022-11-01T05:58:04.593Z,83.50
2022-11-01T06:00:31.889Z,82.40
2022-11-01T06:02:59.704Z,82.80
2022-11-01T06:05:27.468Z,81.50
2022-11-01T06:07:54.146Z,82.10
2022-11-01T06:10:20.770Z,82.60
2022-11-01T06:12:47.379Z,81.40
2022-11-01T06:15:14.151Z,82.50
2022-11-01T06:17:40.762Z,83.80
2022-11-01T06:20:07.865Z,84.70
2022-11-01T06:22:37.822Z,82.30
2022-11-01T06:25:08.039Z,82.10
2022-11-01T06:27:34.657Z,82.10
2022-11-01T06:30:03.277Z,82.60
2022-11-01T06:32:29.923Z,82.60
2022-11-01T06:34:56.566Z,83.60
2022-11-01T06:37:23.206Z,82.60
2022-11-01T06:39:50.822Z,84.00
2022-11-01T06:42:17.588Z,84.70
2022-11-01T06:44:44.190Z,85.20
2022-11-01T06:47:12.686Z,83.50
2022-11-01T06:49:40.002Z,82.80
2022-11-01T06:52:07.044Z,82.40
2022-11-01T06:54:33.694Z,81.90
2022-11-01T06:57:00.345Z,81.80
2022-11-01T06:59:26.955Z,82.60
2022-11-01T07:01:54.396Z,83.00
2022-11-01T07:04:21.480Z,83.20
2022-11-01T07:06:48.093Z,83.20
2022-11-01T07:09:14.741Z,82.90
2022-11-01T07:11:41.395Z,84.00
2022-11-01T07:14:09.145Z,83.00
2022-11-01T07:16:35.833Z,83.50
2022-11-01T07:19:02.806Z,83.10
2022-11-01T07:21:29.420Z,82.40
2022-11-01T07:23:56.150Z,82.40
2022-11-01T07:26:22.794Z,83.00
2022-11-01T07:28:49.403Z,83.30
2022-11-01T07:31:16.005Z,82.80
2022-11-01T07:33:42.919Z,82.40
2022-11-01T07:36:09.705Z,82.60
2022-11-01T07:38:37.488Z,82.50
2022-11-01T07:41:05.568Z,82.60
2022-11-01T07:43:32.602Z,82.40
2022-11-01T07:46:09.444Z,84.20
2022-11-01T07:48:36.738Z,82.90
2022-11-01T07:51:05.763Z,82.70
2022-11-01T07:53:33.111Z,83.40
2022-11-01T07:56:02.909Z,83.10
2022-11-01T07:58:29.818Z,82.90
2022-11-01T08:00:56.887Z,82.10
2022-11-01T08:03:23.956Z,81.60
2022-11-01T08:05:50.598Z,82.00
2022-11-01T08:08:18.012Z,81.70
2022-11-01T08:10:45.559Z,81.50
2022-11-01T08:13:25.217Z,82.50
2022-11-01T08:15:53.631Z,81.90
2022-11-01T08:18:22.655Z,81.60
2022-11-01T08:20:49.707Z,81.30
2022-11-01T08:23:16.649Z,81.20
2022-11-01T08:25:43.354Z,80.90
2022-11-01T08:28:15.595Z,80.30
2022-11-01T08:30:43.898Z,80.70
2022-11-01T08:33:11.472Z,80.60
2022-11-01T08:35:38.513Z,80.10
2022-11-01T08:38:05.406Z,80.10
2022-11-01T08:40:33.414Z,79.80
2022-11-01T08:43:00.425Z,79.60
2022-11-01T08:45:27.426Z,79.70
2022-11-01T08:48:03.282Z,79.50
2022-11-01T08:50:30.540Z,79.10
2022-11-01T08:52:57.254Z,79.00
2022-11-01T08:55:24.022Z,78.90
2022-11-01T08:57:50.786Z,78.40
2022-11-01T09:00:18.092Z,78.10
2022-11-01T09:02:45.241Z,78.20
2022-11-01T09:05:12.127Z,77.90
2022-11-01T09:07:38.963Z,77.20
2022-11-01T09:10:06.528Z,76.50
2022-11-01T09:12:33.565Z,76.60
2022-11-01T09:15:00.493Z,76.50
2022-11-01T09:17:27.194Z,75.90
2022-11-01T09:19:53.908Z,75.20
2022-11-01T09:22:20.794Z,75.20
2022-11-01T09:24:47.527Z,73.40
2022-11-01T09:27:14.188Z,73.70
2022-11-01T09:29:41.038Z,73.30
2022-11-01T09:32:07.711Z,72.70
2022-11-01T09:34:34.910Z,71.90
2022-11-01T09:37:01.720Z,71.50
2022-11-01T09:39:28.393Z,71.80
2022-11-01T09:41:58.640Z,71.40
2022-11-01T09:44:40.135Z,71.20
2022-11-01T09:47:18.922Z,71.20
2022-11-01T09:49:48.229Z,69.20
2022-11-01T09:52:23.872Z,67.70
2022-11-01T09:54:50.678Z,66.10
2022-11-01T09:57:35.610Z,65.40
2022-11-01T10:00:16.224Z,64.10
2022-11-01T10:05:59.997Z,61.80
2022-11-01T10:08:29.801Z,63.10
2022-11-01T10:11:35.339Z,62.80
2022-11-01T10:14:05.068Z,63.20
2022-11-01T10:16:41.505Z,63.50
2022-11-01T10:19:18.129Z,64.20
2022-11-01T10:22:01.173Z,63.10
2022-11-01T10:24:32.016Z,63.60
2022-11-01T10:27:37.310Z,64.30
2022-11-01T10:30:11.592Z,63.00
2022-11-01T10:32:49.642Z,63.60
2022-11-01T10:35:20.721Z,62.50
2022-11-01T10:38:19.202Z,64.30
2022-11-01T10:40:54.882Z,64.30
2022-11-01T10:43:24.355Z,61.80
2022-11-01T10:45:55.257Z,61.20
2022-11-01T10:48:33.198Z,63.40
2022-11-01T10:51:03.696Z,62.40
2022-11-01T10:53:36.389Z,60.50
2022-11-01T10:56:09.022Z,60.80
2022-11-01T10:58:56.379Z,60.80
2022-11-01T11:01:27.025Z,60.40
2022-11-01T11:03:56.758Z,59.40
2022-11-01T11:06:23.652Z,59.70
2022-11-01T11:08:53.191Z,58.70
2022-11-01T11:11:32.188Z,58.70
2022-11-01T11:14:02.727Z,58.40
2022-11-01T11:16:35.230Z,58.00
2022-11-01T11:19:07.860Z,57.40
2022-11-01T11:21:35.100Z,59.40
2022-11-01T11:24:03.216Z,59.20
2022-11-01T11:26:38.795Z,59.10
2022-11-01T11:29:06.031Z,59.40
2022-11-01T11:31:35.416Z,59.30
2022-11-01T11:34:32.932Z,58.70
2022-11-01T11:37:03.357Z,56.90
2022-11-01T11:39:38.639Z,55.70
2022-11-01T11:42:19.871Z,56.90
2022-11-01T11:44:55.409Z,57.00
2022-11-01T11:47:28.238Z,57.50
2022-11-01T11:49:58.146Z,55.60
2022-11-01T11:52:38.049Z,54.80
2022-11-01T11:55:06.465Z,54.30
2022-11-01T11:57:34.307Z,54.90
2022-11-01T12:00:05.473Z,55.40
2022-11-01T12:02:36.485Z,54.40
2022-11-01T12:05:09.272Z,53.90
2022-11-01T12:07:48.962Z,54.30
2022-11-01T12:10:39.323Z,53.30
2022-11-01T12:13:26.704Z,53.50
2022-11-01T12:16:20.187Z,54.20
2022-11-01T12:18:58.702Z,55.60
2022-11-01T12:21:33.542Z,56.40
2022-11-01T12:24:27.004Z,56.80
2022-11-01T12:26:57.843Z,57.60
2022-11-01T12:29:24.429Z,56.80
2022-11-01T12:31:53.112Z,56.60
2022-11-01T12:34:24.571Z,58.00
2022-11-01T12:36:58.064Z,56.40
2022-11-01T12:39:40.812Z,55.60
2022-11-01T12:42:11.998Z,53.30
2022-11-01T12:44:51.526Z,54.80
2022-11-01T12:47:38.640Z,53.00
2022-11-01T12:50:17.753Z,54.50
2022-11-01T12:53:19.415Z,53.70
2022-11-01T12:55:47.090Z,53.90
2022-11-01T12:58:19.810Z,50.50
2022-11-01T13:00:55.275Z,51.80
2022-11-01T13:04:03.833Z,53.10
2022-11-01T13:07:17.248Z,52.40
2022-11-01T13:10:04.991Z,52.20
2022-11-01T13:12:58.800Z,54.40
2022-11-01T13:15:54.647Z,53.10
2022-11-01T13:18:33.620Z,50.80
2022-11-01T13:21:44.904Z,50.70
2022-11-01T13:24:14.436Z,50.70
2022-11-01T13:27:15.271Z,51.90
2022-11-01T13:29:51.938Z,52.40
2022-11-01T13:32:44.729Z,51.10
2022-11-01T13:35:23.467Z,52.10
2022-11-01T13:38:24.054Z,53.10
2022-11-01T13:41:11.162Z,53.70
2022-11-01T13:43:56.322Z,53.10
2022-11-01T13:46:42.047Z,52.30
2022-11-01T13:49:08.667Z,51.40
2022-11-01T13:51:50.300Z,51.90
2022-11-01T13:54:32.652Z,52.30
2022-11-01T13:57:13.493Z,51.20
2022-11-01T13:59:54.151Z,50.90
2022-11-01T14:02:23.972Z,51.50
2022-11-01T14:05:12.531Z,50.90
2022-11-01T14:08:05.583Z,52.50
2022-11-01T14:10:32.453Z,52.40
2022-11-01T14:13:11.848Z,51.30
2022-11-01T14:15:53.784Z,51.30
2022-11-01T14:18:20.617Z,52.00
2022-11-01T14:20:50.506Z,51.90
2022-11-01T14:23:29.213Z,52.20
2022-11-01T14:26:21.152Z,51.50
2022-11-01T14:28:48.753Z,51.10
2022-11-01T14:31:18.212Z,51.00
2022-11-01T14:33:48.354Z,51.60
2022-11-01T14:36:18.212Z,51.40
2022-11-01T14:39:15.465Z,51.40
2022-11-01T14:41:44.542Z,51.80
2022-11-01T14:44:34.770Z,51.40
2022-11-01T14:47:08.115Z,52.20
2022-11-01T14:49:42.356Z,51.70
2022-11-01T14:52:13.073Z,51.60
2022-11-01T14:54:56.354Z,51.90
2022-11-01T14:57:28.724Z,51.70
2022-11-01T14:59:56.951Z,51.30
2022-11-01T15:02:25.662Z,51.80
2022-11-01T15:04:59.371Z,52.20
2022-11-01T15:07:31.199Z,51.40
2022-11-01T15:10:04.297Z,52.00
2022-11-01T15:12:34.604Z,52.60
2022-11-01T15:15:02.851Z,52.40
2022-11-01T15:17:33.351Z,52.60
2022-11-01T15:20:04.243Z,52.90
2022-11-01T15:22:33.589Z,52.60
2022-11-01T15:25:06.765Z,51.90
2022-11-01T15:27:44.269Z,52.00
2022-11-01T15:30:32.067Z,52.20
2022-11-01T15:33:34.838Z,51.70
2022-11-01T15:36:04.370Z,52.00
2022-11-01T15:38:49.338Z,52.00
2022-11-01T15:41:21.026Z,52.20
2022-11-01T15:43:54.964Z,52.40
2022-11-01T15:46:28.634Z,51.80
2022-11-01T15:48:58.306Z,51.80
2022-11-01T15:51:29.575Z,52.20
2022-11-01T15:54:04.709Z,52.20
2022-11-01T15:56:42.557Z,52.50
2022-11-01T15:59:30.342Z,52.70
2022-11-01T16:02:00.880Z,52.70
2022-11-01T16:04:34.120Z,52.90
2022-11-01T16:07:07.055Z,53.00
2022-11-01T16:09:47.244Z,52.60
2022-11-01T16:12:22.021Z,53.20
2022-11-01T16:14:55.546Z,53.00
2022-11-01T16:17:34.919Z,53.90
2022-11-01T16:20:06.489Z,53.70
2022-11-01T16:22:34.615Z,53.90
2022-11-01T16:25:11.618Z,54.00
2022-11-01T16:28:01.295Z,54.20
2022-11-01T16:30:47.247Z,54.60
2022-11-01T16:33:25.935Z,54.80
2022-11-01T16:35:56.437Z,54.90
2022-11-01T16:38:35.965Z,54.90
2022-11-01T16:41:14.099Z,55.20
2022-11-01T16:43:41.036Z,55.20
2022-11-01T16:46:07.877Z,55.40
2022-11-01T16:49:00.898Z,55.50
2022-11-01T16:51:30.189Z,55.70
2022-11-01T16:53:58.747Z,55.80
2022-11-01T16:56:42.275Z,56.00
2022-11-01T16:59:15.449Z,56.20
2022-11-01T17:01:45.921Z,56.40
2022-11-01T17:04:13.571Z,56.60
2022-11-01T17:06:40.325Z,56.80
2022-11-01T17:09:13.413Z,56.90
2022-11-01T17:11:41.687Z,57.10
2022-11-01T17:14:09.894Z,57.20
2022-11-01T17:16:37.215Z,57.30
2022-11-01T17:19:05.745Z,57.40
2022-11-01T17:21:37.968Z,57.80
2022-11-01T17:24:05.030Z,57.80
2022-11-01T17:26:33.531Z,58.10
2022-11-01T17:29:00.381Z,58.40
2022-11-01T17:31:27.212Z,58.40
2022-11-01T17:33:53.853Z,58.60
2022-11-01T17:36:20.581Z,58.70
2022-11-01T17:38:50.212Z,59.00
2022-11-01T17:41:19.684Z,59.10
2022-11-01T17:43:46.423Z,59.10
2022-11-01T17:46:17.185Z,59.40
2022-11-01T17:48:43.920Z,59.50
2022-11-01T17:51:10.796Z,59.90
2022-11-01T17:53:39.402Z,59.70
2022-11-01T17:56:07.196Z,59.80
2022-11-01T17:58:34.101Z,59.90
2022-11-01T18:01:00.896Z,59.90
2022-11-01T18:03:27.673Z,60.00
2022-11-01T18:05:59.190Z,59.90
2022-11-01T18:08:29.864Z,60.30
2022-11-01T18:11:02.894Z,61.00
2022-11-01T18:13:48.341Z,60.20
2022-11-01T18:16:14.935Z,60.00
2022-11-01T18:18:44.331Z,60.10
2022-11-01T18:21:31.337Z,60.70
2022-11-01T18:24:02.963Z,60.80
2022-11-01T18:26:29.792Z,61.10
2022-11-01T18:29:20.912Z,61.10
2022-11-01T18:32:04.900Z,61.40
2022-11-01T18:34:34.824Z,61.60
2022-11-01T18:37:20.484Z,61.50
2022-11-01T18:40:24.601Z,62.00
2022-11-01T18:42:55.507Z,62.10
2022-11-01T18:45:31.192Z,61.90
2022-11-01T18:48:28.805Z,62.10
2022-11-01T18:51:05.239Z,62.70
2022-11-01T18:53:33.467Z,62.70
2022-11-01T18:56:21.076Z,62.50
2022-11-01T18:58:52.570Z,63.20
2022-11-01T19:01:32.372Z,63.40
2022-11-01T19:04:07.215Z,63.20
2022-11-01T19:06:33.922Z,63.30
2022-11-01T19:09:13.979Z,63.30
2022-11-01T19:11:41.687Z,63.60
2022-11-01T19:14:11.601Z,63.60
2022-11-01T19:16:38.337Z,63.50
2022-11-01T19:19:14.491Z,64.00
2022-11-01T19:21:41.109Z,63.90
2022-11-01T19:24:22.582Z,63.90
2022-11-01T19:26:49.393Z,64.00
2022-11-01T19:29:19.164Z,64.30
2022-11-01T19:31:48.520Z,64.10
2022-11-01T19:34:27.846Z,64.40
2022-11-01T19:36:55.298Z,64.10
2022-11-01T19:39:23.917Z,64.50
2022-11-01T19:41:51.664Z,64.70
2022-11-01T19:44:25.793Z,64.60
2022-11-01T19:46:55.930Z,64.90
2022-11-01T19:49:29.678Z,65.00
2022-11-01T19:51:59.168Z,65.00
2022-11-01T19:54:31.226Z,65.10
2022-11-01T19:57:00.207Z,65.20
2022-11-01T19:59:27.413Z,65.50
2022-11-01T20:01:54.247Z,65.50
2022-11-01T20:04:27.901Z,65.60
2022-11-01T20:07:15.428Z,65.80
2022-11-01T20:09:45.193Z,65.90
2022-11-01T20:12:12.321Z,65.80
2022-11-01T20:14:39.786Z,66.20
2022-11-01T20:17:06.589Z,66.30
2022-11-01T20:19:33.365Z,65.90
2022-11-01T20:22:00.263Z,66.30
2022-11-01T20:24:31.126Z,66.20
2022-11-01T20:26:59.700Z,66.20
2022-11-01T20:29:26.378Z,65.90
2022-11-01T20:31:53.029Z,66.40
2022-11-01T20:34:20.613Z,66.40
2022-11-01T20:37:08.269Z,66.10
2022-11-01T20:39:33.867Z,66.30
2022-11-01T20:42:00.753Z,66.30
2022-11-01T20:44:27.535Z,66.20
2022-11-01T20:46:54.219Z,65.90
2022-11-01T20:49:21.583Z,65.70
2022-11-01T20:51:48.254Z,65.70
2022-11-01T20:54:17.821Z,66.00
2022-11-01T20:56:44.844Z,65.90
2022-11-01T20:59:12.941Z,65.90
2022-11-01T21:01:41.516Z,65.90
2022-11-01T21:04:12.427Z,65.90
2022-11-01T21:06:39.165Z,65.90
2022-11-01T21:09:27.940Z,66.10
2022-11-01T21:11:56.000Z,65.80
2022-11-01T21:14:23.679Z,66.30
2022-11-01T21:16:50.615Z,66.00
2022-11-01T21:19:21.985Z,66.10
2022-11-01T21:21:58.499Z,66.00
2022-11-01T21:24:34.024Z,66.20
2022-11-01T21:27:11.502Z,66.10
2022-11-01T21:29:42.735Z,66.20
2022-11-01T21:32:42.474Z,66.00
2022-11-01T21:35:20.939Z,65.90
2022-11-01T21:37:54.527Z,65.70
2022-11-01T21:40:29.268Z,66.10
2022-11-01T21:42:56.560Z,66.40
2022-11-01T21:45:32.869Z,66.30
2022-11-01T21:48:18.045Z,66.30
2022-11-01T21:50:44.730Z,66.20
2022-11-01T21:53:11.352Z,66.50
2022-11-01T21:55:40.817Z,66.60
2022-11-01T21:58:07.490Z,66.20
2022-11-01T22:00:34.188Z,66.50
2022-11-01T22:03:01.399Z,66.50
2022-11-01T22:05:28.336Z,67.00
2022-11-01T22:07:55.002Z,66.70
2022-11-01T22:10:21.753Z,66.50
2022-11-01T22:12:48.442Z,66.70
2022-11-01T22:15:15.151Z,67.00
2022-11-01T22:17:41.870Z,66.60
2022-11-01T22:20:08.960Z,67.10
2022-11-01T22:22:35.606Z,66.70
2022-11-01T22:25:02.997Z,66.70
2022-11-01T22:27:29.658Z,66.80
2022-11-01T22:29:56.356Z,67.00
2022-11-01T22:32:23.483Z,67.10
2022-11-01T22:34:50.166Z,67.00
2022-11-01T22:37:16.820Z,67.10
2022-11-01T22:39:43.686Z,67.90
2022-11-01T22:42:15.291Z,67.10
2022-11-01T22:44:45.389Z,67.20
2022-11-01T22:47:30.289Z,67.30
2022-11-01T22:50:03.388Z,67.10
2022-11-01T22:52:44.449Z,67.20
2022-11-01T22:55:11.151Z,67.40
2022-11-01T22:58:03.754Z,67.30
2022-11-01T23:00:38.865Z,68.10
2022-11-01T23:03:31.863Z,68.10
2022-11-01T23:06:02.175Z,68.80
2022-11-01T23:08:29.918Z,68.10
2022-11-01T23:10:57.432Z,68.10
2022-11-01T23:13:45.371Z,68.20
2022-11-01T23:16:26.935Z,68.60
2022-11-01T23:18:57.652Z,68.70
2022-11-01T23:21:24.675Z,68.20
2022-11-01T23:23:51.403Z,68.30
2022-11-01T23:26:19.971Z,68.20
2022-11-01T23:28:50.126Z,68.40
2022-11-01T23:31:17.357Z,68.60
2022-11-01T23:33:46.221Z,68.40
2022-11-01T23:36:29.449Z,69.40
2022-11-01T23:39:04.245Z,69.10
2022-11-01T23:41:45.257Z,69.40
2022-11-01T23:44:19.172Z,68.80
2022-11-01T23:46:45.868Z,69.40
2022-11-01T23:49:38.885Z,70.30
2022-11-01T23:52:23.764Z,70.20
2022-11-01T23:54:50.426Z,70.00
2022-11-01T23:57:20.394Z,69.20
2022-11-01T23:59:50.855Z,69.10
